Time;durP1;ratioP1;P1;durP2;ratioP2;P2;SDS_P1;SDS_P2;PMS_P1;PMS_P2;Temp;Humidity;BMP_temperature;BMP_pressure;BME280_temperature;BME280_humidity;BME280_pressure;Samples;Min_cycle;Max_cycle;Signal;HPM_P1;HPM_P2
2023/01/19 00:00:51;;;;;;;5.70;4.97;;;1.10;99.90;;;;;;5052254;28;20485;-74
2023/01/19 00:03:28;;;;;;;4.37;3.57;;;1.10;99.90;;;;;;5048678;28;20911;-74
2023/01/19 00:05:57;;;;;;;3.97;3.67;;;1.00;99.90;;;;;;5055735;28;20488;-74
2023/01/19 00:08:24;;;;;;;5.50;4.50;;;1.00;99.90;;;;;;5052414;28;20949;-74
2023/01/19 00:10:51;;;;;;;8.43;5.30;;;1.00;99.90;;;;;;5047080;28;20558;-74
2023/01/19 00:13:18;;;;;;;4.47;4.03;;;1.10;99.90;;;;;;5053576;28;20874;-74
2023/01/19 00:15:45;;;;;;;7.43;4.60;;;1.00;99.90;;;;;;5051348;28;20500;-75
2023/01/19 00:18:12;;;;;;;4.97;4.47;;;1.10;99.90;;;;;;5058067;28;20571;-74
2023/01/19 00:20:41;;;;;;;4.60;4.00;;;1.00;99.90;;;;;;5045878;28;20488;-74
2023/01/19 00:23:09;;;;;;;4.57;3.77;;;1.10;99.90;;;;;;5054178;28;20511;-74
2023/01/19 00:25:41;;;;;;;6.10;4.40;;;1.10;99.90;;;;;;5049951;28;20505;-74
2023/01/19 00:28:08;;;;;;;5.90;4.93;;;1.10;99.90;;;;;;5053802;28;20468;-75
2023/01/19 00:30:35;;;;;;;3.70;3.40;;;1.10;99.90;;;;;;5052029;28;20493;-75
2023/01/19 00:33:04;;;;;;;4.93;4.53;;;1.10;99.90;;;;;;5047705;28;20473;-74
2023/01/19 00:35:31;;;;;;;5.13;4.50;;;1.10;99.90;;;;;;5047862;28;20507;-74
2023/01/19 00:38:00;;;;;;;4.10;3.70;;;1.10;99.90;;;;;;5055937;28;20951;-75
2023/01/19 00:40:27;;;;;;;5.10;4.23;;;1.10;99.90;;;;;;5050419;28;20469;-74
2023/01/19 00:42:53;;;;;;;4.17;3.83;;;1.10;99.90;;;;;;5052112;28;20488;-74
2023/01/19 00:45:22;;;;;;;3.50;3.20;;;1.10;99.90;;;;;;5055004;28;20453;-74
2023/01/19 00:47:53;;;;;;;5.47;5.00;;;1.10;99.90;;;;;;5043055;28;20496;-74
2023/01/19 00:50:21;;;;;;;4.83;4.20;;;1.10;99.90;;;;;;5054329;28;20765;-74
2023/01/19 00:52:50;;;;;;;5.30;4.03;;;1.10;99.90;;;;;;5050173;28;20492;-74
2023/01/19 00:55:22;;;;;;;6.37;3.83;;;1.10;99.90;;;;;;5052988;28;20663;-74
2023/01/19 00:57:49;;;;;;;5.70;5.10;;;1.10;99.90;;;;;;5052362;28;20515;-74
2023/01/19 01:00:18;;;;;;;4.50;4.03;;;1.10;99.90;;;;;;5053864;28;20896;-74
2023/01/19 01:02:45;;;;;;;5.47;3.70;;;1.10;99.90;;;;;;5047615;28;20477;-74
2023/01/19 01:05:15;;;;;;;5.80;4.77;;;1.10;99.90;;;;;;5056761;28;20634;-74
2023/01/19 01:07:43;;;;;;;4.17;3.77;;;1.10;99.90;;;;;;5049215;28;20470;-74
2023/01/19 01:10:12;;;;;;;4.87;4.47;;;1.10;99.90;;;;;;5055454;28;20460;-74
2023/01/19 01:12:43;;;;;;;3.83;3.20;;;1.10;99.90;;;;;;5051608;28;20835;-74
2023/01/19 01:15:12;;;;;;;7.57;5.20;;;1.10;99.90;;;;;;5047746;28;20468;-74
2023/01/19 01:17:45;;;;;;;5.07;4.63;;;1.10;99.90;;;;;;5052076;28;20535;-74
2023/01/19 01:20:16;;;;;;;4.32;3.83;;;1.00;99.90;;;;;;5050477;28;20880;-74
2023/01/19 01:22:47;;;;;;;7.63;4.25;;;1.00;99.90;;;;;;5047677;28;20234;-74
2023/01/19 01:25:15;;;;;;;5.73;4.30;;;1.00;99.90;;;;;;5056138;28;20714;-74
2023/01/19 01:27:44;;;;;;;5.30;4.80;;;1.00;99.90;;;;;;5052282;28;20492;-74
2023/01/19 01:30:13;;;;;;;5.23;4.00;;;1.00;99.90;;;;;;5048770;28;20481;-74
2023/01/19 01:32:40;;;;;;;7.00;4.90;;;1.00;99.90;;;;;;5052087;28;20496;-74
2023/01/19 01:35:09;;;;;;;6.83;4.97;;;1.00;99.90;;;;;;5055517;28;20480;-74
2023/01/19 01:37:36;;;;;;;5.30;4.80;;;1.00;99.90;;;;;;5052093;28;20518;-74
2023/01/19 01:40:03;;;;;;;6.50;5.10;;;1.00;99.90;;;;;;5046785;28;20527;-74
2023/01/19 01:42:31;;;;;;;6.43;4.93;;;1.00;99.90;;;;;;5056459;28;20879;-74
2023/01/19 01:45:02;;;;;;;11.10;5.47;;;1.00;99.90;;;;;;5050002;28;20870;-74
2023/01/19 01:47:36;;;;;;;7.20;5.20;;;1.00;99.90;;;;;;5052774;28;20485;-74
2023/01/19 01:50:13;;;;;;;7.63;5.77;;;1.00;99.90;;;;;;5045828;28;20471;-74
2023/01/19 01:52:44;;;;;;;6.43;4.83;;;1.00;99.90;;;;;;5046956;28;20453;-74
2023/01/19 01:55:13;;;;;;;5.97;4.80;;;1.00;99.90;;;;;;5061298;28;20488;-74
2023/01/19 01:57:46;;;;;;;10.40;6.67;;;1.00;99.90;;;;;;5048677;28;20902;-74
2023/01/19 02:00:18;;;;;;;6.87;5.63;;;0.90;99.90;;;;;;5049187;28;20492;-74
2023/01/19 02:02:50;;;;;;;8.27;5.33;;;0.90;99.90;;;;;;5045973;28;20464;-74
2023/01/19 02:05:22;;;;;;;6.17;4.80;;;0.90;99.90;;;;;;5051533;28;20503;-74
2023/01/19 02:13:24;;;;;;;7.40;5.57;;;0.90;99.90;;;;;;5047209;28;20491;-75
2023/01/19 02:15:55;;;;;;;8.90;6.20;;;0.90;99.90;;;;;;5052832;28;21265;-74
2023/01/19 02:18:26;;;;;;;7.15;6.00;;;0.90;99.90;;;;;;5052174;28;20520;-74
2023/01/19 02:21:03;;;;;;;6.67;5.97;;;0.90;99.90;;;;;;5045428;28;20677;-74
2023/01/19 02:26:33;;;;;;;7.07;5.32;;;0.90;99.90;;;;;;5095128;27;20589;-75
2023/01/19 02:29:03;;;;;;;8.77;7.03;;;0.90;99.90;;;;;;5096023;28;20231;-75
2023/01/19 02:31:34;;;;;;;11.57;7.60;;;0.90;99.90;;;;;;5089120;28;20782;-75
2023/01/19 02:34:04;;;;;;;5.80;5.07;;;0.90;99.90;;;;;;5090551;28;20491;-75
2023/01/19 02:36:46;;;;;;;8.37;6.53;;;0.80;99.90;;;;;;5091753;28;20719;-75
2023/01/19 02:39:15;;;;;;;8.77;6.82;;;0.80;99.90;;;;;;5094630;28;20922;-75
2023/01/19 02:41:47;;;;;;;8.93;7.33;;;0.80;99.90;;;;;;5084878;28;20653;-75
2023/01/19 02:44:16;;;;;;;10.20;5.60;;;0.80;99.90;;;;;;5089988;28;20733;-74
2023/01/19 02:46:44;;;;;;;11.93;7.30;;;0.80;99.90;;;;;;5085487;28;20491;-75
2023/01/19 02:49:10;;;;;;;11.03;6.90;;;0.80;99.90;;;;;;5090951;28;20493;-75
2023/01/19 02:51:37;;;;;;;10.37;8.70;;;0.90;99.90;;;;;;5091238;28;20486;-75
2023/01/19 02:54:20;;;;;;;9.63;6.03;;;0.80;99.90;;;;;;5092174;28;20544;-75
2023/01/19 02:57:11;;;;;;;9.43;6.10;;;0.80;99.90;;;;;;5082157;28;20779;-75
2023/01/19 02:59:48;;;;;;;8.90;6.73;;;0.80;99.90;;;;;;5083725;28;20543;-75
2023/01/19 03:02:36;;;;;;;7.60;5.93;;;0.80;99.90;;;;;;5095089;28;20531;-75
2023/01/19 03:05:28;;;;;;;10.00;7.67;;;0.80;99.90;;;;;;5084506;28;20947;-75
2023/01/19 03:08:02;;;;;;;7.97;6.10;;;0.80;99.90;;;;;;5079175;28;20560;-74
2023/01/19 03:10:33;;;;;;;10.20;7.60;;;0.80;99.90;;;;;;5092369;28;20466;-74
2023/01/19 03:13:10;;;;;;;8.73;6.93;;;0.80;99.90;;;;;;5092593;28;20494;-74
2023/01/19 03:15:45;;;;;;;10.67;7.20;;;0.80;99.90;;;;;;5089797;28;20462;-74
2023/01/19 03:18:16;;;;;;;7.93;7.13;;;0.80;99.90;;;;;;5087453;28;20898;-74
2023/01/19 03:20:45;;;;;;;8.70;6.70;;;0.80;99.90;;;;;;5092462;28;20475;-74
2023/01/19 03:23:15;;;;;;;11.50;7.17;;;0.80;99.90;;;;;;5087927;28;20467;-74
2023/01/19 03:25:46;;;;;;;10.97;7.23;;;0.80;99.90;;;;;;5085836;28;21043;-74
2023/01/19 03:28:17;;;;;;;10.23;7.97;;;0.80;99.90;;;;;;5088171;28;20478;-74
2023/01/19 03:30:46;;;;;;;11.23;6.93;;;0.80;99.90;;;;;;5085553;28;20475;-74
2023/01/19 03:33:17;;;;;;;14.30;8.90;;;0.80;99.90;;;;;;5090185;28;20493;-73
2023/01/19 03:35:52;;;;;;;14.67;7.70;;;0.80;99.90;;;;;;5090713;28;20442;-74
2023/01/19 03:38:26;;;;;;;11.97;8.17;;;0.80;99.90;;;;;;5076541;28;20550;-74
2023/01/19 03:40:55;;;;;;;12.10;7.90;;;0.80;99.90;;;;;;5067138;28;20491;-74
2023/01/19 03:43:24;;;;;;;10.23;7.40;;;0.80;99.90;;;;;;5069298;28;20510;-74
2023/01/19 03:45:53;;;;;;;8.77;6.90;;;0.80;99.90;;;;;;5069202;28;20519;-74
2023/01/19 03:48:21;;;;;;;11.93;8.70;;;0.80;99.90;;;;;;5075455;28;20489;-73
2023/01/19 03:50:48;;;;;;;11.40;8.30;;;0.70;99.90;;;;;;5068643;28;20455;-73
2023/01/19 03:53:17;;;;;;;10.50;8.23;;;0.70;99.90;;;;;;5074359;28;20500;-74
2023/01/19 03:55:49;;;;;;;9.60;7.73;;;0.70;99.90;;;;;;5071532;28;20471;-74
2023/01/19 03:58:18;;;;;;;11.47;8.07;;;0.80;99.90;;;;;;5072873;28;20457;-74
2023/01/19 04:00:49;;;;;;;10.83;7.33;;;0.80;99.90;;;;;;5068480;28;20520;-74
2023/01/19 04:03:20;;;;;;;13.33;7.83;;;0.80;99.90;;;;;;5077553;28;20484;-73
2023/01/19 04:05:48;;;;;;;10.93;8.68;;;0.80;99.90;;;;;;5066258;28;20779;-73
2023/01/19 04:08:15;;;;;;;12.20;8.70;;;0.80;99.90;;;;;;5069611;28;20516;-74
2023/01/19 04:10:44;;;;;;;11.13;8.40;;;0.80;99.90;;;;;;5067341;28;20492;-73
2023/01/19 04:13:10;;;;;;;13.60;8.60;;;0.80;99.90;;;;;;5073560;28;20863;-74
2023/01/19 04:15:40;;;;;;;11.17;8.47;;;0.80;99.90;;;;;;5079715;28;20512;-74
2023/01/19 04:18:10;;;;;;;10.93;9.30;;;0.80;99.90;;;;;;5081362;28;20911;-74
2023/01/19 04:20:37;;;;;;;14.87;9.97;;;0.80;99.90;;;;;;5072204;28;20491;-74
2023/01/19 04:23:04;;;;;;;14.50;8.93;;;0.70;99.90;;;;;;5073585;28;20486;-74
2023/01/19 04:25:34;;;;;;;14.47;8.27;;;0.80;99.90;;;;;;5073907;28;20971;-74
2023/01/19 04:28:01;;;;;;;13.73;9.47;;;0.80;99.90;;;;;;5072874;28;20524;-74
2023/01/19 04:30:28;;;;;;;10.60;8.13;;;0.80;99.90;;;;;;5073929;28;20452;-74
2023/01/19 04:32:57;;;;;;;12.67;10.00;;;0.80;99.90;;;;;;5072482;28;20495;-74
2023/01/19 04:35:27;;;;;;;12.10;8.00;;;0.80;99.90;;;;;;5075334;28;20467;-74
2023/01/19 04:37:54;;;;;;;10.90;6.57;;;0.80;99.90;;;;;;5076448;28;20459;-74
2023/01/19 04:40:21;;;;;;;12.03;8.57;;;0.80;99.90;;;;;;5073232;28;20486;-74
2023/01/19 04:42:48;;;;;;;13.10;8.97;;;0.80;99.90;;;;;;5075154;28;20475;-74
2023/01/19 04:45:16;;;;;;;14.23;9.50;;;0.80;99.90;;;;;;5072120;28;20575;-74
2023/01/19 04:47:43;;;;;;;13.27;9.30;;;0.80;99.90;;;;;;5073933;28;20443;-73
2023/01/19 04:50:11;;;;;;;11.33;8.57;;;0.80;99.90;;;;;;5080602;28;20471;-74
2023/01/19 04:52:39;;;;;;;12.70;9.20;;;0.80;99.90;;;;;;5078334;28;20576;-74
2023/01/19 04:55:08;;;;;;;10.80;9.57;;;0.80;99.90;;;;;;5077641;28;20471;-74
2023/01/19 04:57:35;;;;;;;11.20;9.17;;;0.80;99.90;;;;;;5075329;28;20514;-73
2023/01/19 05:00:03;;;;;;;12.30;9.60;;;0.80;99.90;;;;;;5078228;28;20482;-73
2023/01/19 05:02:32;;;;;;;12.10;8.73;;;0.80;99.90;;;;;;5079216;28;20482;-74
2023/01/19 05:05:08;;;;;;;16.73;9.43;;;0.70;99.90;;;;;;5072820;28;20530;-74
2023/01/19 05:07:36;;;;;;;11.83;8.13;;;0.80;99.90;;;;;;5071486;28;20523;-74
2023/01/19 05:10:05;;;;;;;13.45;9.40;;;0.80;99.90;;;;;;5072456;28;20451;-74
2023/01/19 05:12:32;;;;;;;15.73;9.70;;;0.70;99.90;;;;;;5079956;28;20623;-73
2023/01/19 05:15:00;;;;;;;14.77;10.30;;;0.70;99.90;;;;;;5071879;28;20486;-74
2023/01/19 05:17:30;;;;;;;15.20;9.83;;;0.70;99.90;;;;;;5079625;28;20884;-74
2023/01/19 05:19:57;;;;;;;14.47;9.57;;;0.70;99.90;;;;;;5078915;28;20467;-74
2023/01/19 05:22:32;;;;;;;15.07;11.13;;;0.60;99.90;;;;;;5070569;28;20545;-74
2023/01/19 05:25:00;;;;;;;15.10;11.60;;;0.60;99.90;;;;;;5066839;28;21093;-74
2023/01/19 05:27:31;;;;;;;16.50;12.00;;;0.60;99.90;;;;;;5075177;28;20304;-74
2023/01/19 05:29:58;;;;;;;16.58;11.20;;;0.60;99.90;;;;;;5075632;28;20201;-73
2023/01/19 05:32:25;;;;;;;12.88;9.05;;;0.60;99.90;;;;;;5072963;28;20230;-74
2023/01/19 05:34:52;;;;;;;17.03;10.17;;;0.60;99.90;;;;;;5078258;28;20668;-74
2023/01/19 05:37:19;;;;;;;14.20;8.20;;;0.50;99.90;;;;;;5072165;28;20471;-74
2023/01/19 05:39:45;;;;;;;13.82;9.73;;;0.60;99.90;;;;;;5066232;28;20568;-74
2023/01/19 05:42:15;;;;;;;15.32;10.70;;;0.50;99.90;;;;;;5068775;28;20234;-74
2023/01/19 05:44:44;;;;;;;18.30;11.70;;;0.50;99.90;;;;;;5068507;28;20221;-74
2023/01/19 05:47:11;;;;;;;17.50;11.63;;;0.50;99.90;;;;;;5063328;28;20317;-73
2023/01/19 05:49:38;;;;;;;19.17;12.07;;;0.50;99.90;;;;;;5065985;28;20252;-74
2023/01/19 05:52:05;;;;;;;16.30;10.60;;;0.50;99.90;;;;;;5061190;28;20494;-74
2023/01/19 05:54:31;;;;;;;16.00;10.70;;;0.50;99.90;;;;;;5074032;28;20217;-74
2023/01/19 05:56:58;;;;;;;15.97;11.57;;;0.50;99.90;;;;;;5071040;28;20556;-74
2023/01/19 05:59:25;;;;;;;20.60;14.60;;;0.50;99.90;;;;;;5075271;28;20540;-74
2023/01/19 06:01:54;;;;;;;19.00;12.50;;;0.60;99.90;;;;;;5070534;28;20986;-74
2023/01/19 06:04:23;;;;;;;17.40;11.73;;;0.60;99.90;;;;;;5067839;28;20492;-74
2023/01/19 06:06:51;;;;;;;17.23;10.90;;;0.50;99.90;;;;;;5070028;28;20495;-74
2023/01/19 06:09:26;;;;;;;20.60;14.17;;;0.50;99.90;;;;;;5067522;28;20857;-74
2023/01/19 06:11:55;;;;;;;21.67;13.33;;;0.50;99.90;;;;;;5069330;28;20452;-74
2023/01/19 06:14:22;;;;;;;15.87;11.60;;;0.50;99.90;;;;;;5071218;28;20466;-74
2023/01/19 06:16:49;;;;;;;20.37;13.37;;;0.50;99.90;;;;;;5074878;28;20486;-74
2023/01/19 06:19:22;;;;;;;18.10;12.17;;;0.60;99.90;;;;;;5065390;28;20471;-73
2023/01/19 06:21:51;;;;;;;17.40;11.93;;;0.60;99.90;;;;;;5069501;28;20463;-73
2023/01/19 06:24:21;;;;;;;17.07;10.10;;;0.60;99.90;;;;;;5065514;28;20468;-73
2023/01/19 06:26:48;;;;;;;13.63;9.37;;;0.60;99.90;;;;;;5072545;28;20480;-73
2023/01/19 06:29:15;;;;;;;15.48;9.65;;;0.60;99.90;;;;;;5071868;28;20491;-74
2023/01/19 06:31:43;;;;;;;17.60;12.27;;;0.60;99.90;;;;;;5072335;28;20205;-73
2023/01/19 06:34:10;;;;;;;13.27;9.60;;;0.60;99.90;;;;;;5070824;28;20579;-73
2023/01/19 06:36:39;;;;;;;15.40;9.87;;;0.60;99.90;;;;;;5071905;28;20472;-73
2023/01/19 06:39:09;;;;;;;15.30;10.88;;;0.60;99.90;;;;;;5064338;28;20509;-73
2023/01/19 06:41:37;;;;;;;15.27;11.70;;;0.50;99.90;;;;;;5053136;28;20546;-73
2023/01/19 06:44:08;;;;;;;17.00;10.70;;;0.50;99.90;;;;;;5054920;28;21524;-76
2023/01/19 06:46:37;;;;;;;17.37;11.40;;;0.50;99.90;;;;;;5056315;28;20488;-74
2023/01/19 06:49:04;;;;;;;18.90;13.13;;;0.50;99.90;;;;;;5064098;28;21107;-74
2023/01/19 06:51:31;;;;;;;16.38;12.60;;;0.50;99.90;;;;;;5060749;28;20296;-74
2023/01/19 06:54:00;;;;;;;15.77;10.73;;;0.50;99.90;;;;;;5059519;28;20229;-74
2023/01/19 06:56:26;;;;;;;21.23;10.23;;;0.50;99.90;;;;;;5076511;28;20467;-73
2023/01/19 06:58:54;;;;;;;16.90;10.87;;;0.50;99.90;;;;;;5064432;28;20656;-74
2023/01/19 07:01:21;;;;;;;20.67;11.60;;;0.50;99.90;;;;;;5055338;28;21076;-73
2023/01/19 07:03:48;;;;;;;18.27;13.77;;;0.50;99.90;;;;;;5062299;28;21017;-73
2023/01/19 07:06:17;;;;;;;16.77;11.70;;;0.50;99.90;;;;;;5057186;28;20527;-74
2023/01/19 07:08:45;;;;;;;24.77;12.63;;;0.60;99.90;;;;;;5061735;28;20463;-74
2023/01/19 07:11:16;;;;;;;16.80;11.80;;;0.50;99.90;;;;;;5056034;28;21262;-74
2023/01/19 07:13:43;;;;;;;16.53;11.77;;;0.60;99.90;;;;;;5061143;28;20513;-74
2023/01/19 07:16:12;;;;;;;17.80;11.65;;;0.50;99.90;;;;;;5061533;28;20479;-74
2023/01/19 07:18:40;;;;;;;23.77;15.97;;;0.50;99.90;;;;;;5053779;28;20214;-74
2023/01/19 07:21:08;;;;;;;18.00;11.47;;;0.50;99.90;;;;;;5058508;28;20557;-74
2023/01/19 07:23:36;;;;;;;16.53;11.00;;;0.50;99.90;;;;;;5055040;28;20496;-74
2023/01/19 07:26:06;;;;;;;15.60;10.90;;;0.50;99.90;;;;;;5053419;28;20499;-74
2023/01/19 07:28:35;;;;;;;15.90;11.30;;;0.50;99.90;;;;;;5059999;28;20513;-74
2023/01/19 07:31:03;;;;;;;18.40;12.20;;;0.40;99.90;;;;;;5059454;28;20464;-74
2023/01/19 07:33:30;;;;;;;19.27;11.90;;;0.50;99.90;;;;;;5062742;28;21012;-74
2023/01/19 07:36:00;;;;;;;12.57;9.52;;;0.50;99.90;;;;;;5056006;28;20469;-74
2023/01/19 07:38:29;;;;;;;15.60;10.60;;;0.50;99.90;;;;;;5065305;28;20206;-74
2023/01/19 07:41:03;;;;;;;17.63;12.57;;;0.50;99.90;;;;;;5064160;28;20645;-74
2023/01/19 07:43:30;;;;;;;18.55;12.25;;;0.50;99.90;;;;;;5060796;28;20201;-74
2023/01/19 07:46:02;;;;;;;17.35;11.07;;;0.50;99.90;;;;;;5059836;28;20209;-74
2023/01/19 07:48:29;;;;;;;13.93;10.30;;;0.50;99.90;;;;;;5064267;28;20233;-74
2023/01/19 07:51:00;;;;;;;21.60;11.90;;;0.50;99.90;;;;;;5062023;28;20701;-74
2023/01/19 07:53:27;;;;;;;14.40;10.68;;;0.50;99.90;;;;;;5064466;28;20210;-74
2023/01/19 07:55:57;;;;;;;19.73;10.85;;;0.50;99.90;;;;;;5055478;28;20238;-74
2023/01/19 07:58:27;;;;;;;17.30;12.63;;;0.50;99.90;;;;;;5061411;28;20198;-75
2023/01/19 08:00:54;;;;;;;14.55;10.90;;;0.50;99.90;;;;;;5063215;28;20217;-74
2023/01/19 08:03:25;;;;;;;20.67;13.10;;;0.40;99.90;;;;;;5066994;28;20752;-74
2023/01/19 08:05:53;;;;;;;17.53;11.57;;;0.50;99.90;;;;;;5057913;28;20942;-74
2023/01/19 08:08:20;;;;;;;18.73;11.32;;;0.50;99.90;;;;;;5056581;28;20544;-74
2023/01/19 08:11:01;;;;;;;19.43;13.00;;;0.50;99.90;;;;;;5074528;28;20238;-74
2023/01/19 08:13:28;;;;;;;18.63;12.60;;;0.50;99.90;;;;;;5062846;28;20494;-74
2023/01/19 08:15:55;;;;;;;18.57;13.50;;;0.50;99.90;;;;;;5059070;28;20499;-74
2023/01/19 08:18:23;;;;;;;23.73;13.93;;;0.50;99.90;;;;;;5058473;28;20472;-73
2023/01/19 08:20:51;;;;;;;19.48;12.90;;;0.60;99.90;;;;;;5049376;28;20557;-74
2023/01/19 08:23:20;;;;;;;20.47;12.83;;;0.60;99.90;;;;;;5057160;28;20685;-74
2023/01/19 08:25:48;;;;;;;20.00;13.10;;;0.60;99.90;;;;;;5052094;28;20519;-73
2023/01/19 08:28:19;;;;;;;22.43;15.30;;;0.60;99.90;;;;;;5062199;28;20567;-74
2023/01/19 08:30:52;;;;;;;18.40;12.97;;;0.60;99.90;;;;;;5061142;28;20522;-73
2023/01/19 08:33:22;;;;;;;13.77;12.23;;;0.50;99.90;;;;;;5056042;28;20452;-74
2023/01/19 08:35:53;;;;;;;20.80;12.00;;;0.50;99.90;;;;;;5062586;28;20472;-74
2023/01/19 08:38:20;;;;;;;25.73;12.60;;;0.50;99.90;;;;;;5060020;28;20921;-73
2023/01/19 08:40:50;;;;;;;19.97;12.27;;;0.40;99.90;;;;;;5064217;28;20962;-74
2023/01/19 08:43:18;;;;;;;18.00;11.40;;;0.40;99.90;;;;;;5062506;28;20545;-74
2023/01/19 08:45:49;;;;;;;13.77;10.53;;;0.40;99.90;;;;;;5065528;28;20468;-74
2023/01/19 08:48:20;;;;;;;21.83;10.97;;;0.30;99.90;;;;;;5059856;28;20526;-74
2023/01/19 08:50:50;;;;;;;17.63;11.30;;;0.30;99.90;;;;;;5064523;28;20448;-73
2023/01/19 08:53:22;;;;;;;14.10;10.07;;;0.20;99.90;;;;;;5065370;28;20478;-74
2023/01/19 08:55:50;;;;;;;15.70;11.67;;;0.20;99.90;;;;;;5064111;28;20537;-74
2023/01/19 08:58:17;;;;;;;20.30;11.33;;;0.20;99.90;;;;;;5063532;28;20471;-74
2023/01/19 09:00:44;;;;;;;17.67;10.67;;;0.20;99.90;;;;;;5064857;28;20476;-74
2023/01/19 09:03:13;;;;;;;14.47;11.53;;;0.20;99.90;;;;;;5054945;28;20519;-74
2023/01/19 09:05:40;;;;;;;17.37;9.93;;;0.20;99.90;;;;;;5067672;28;20448;-74
2023/01/19 09:08:12;;;;;;;15.55;10.70;;;0.20;99.90;;;;;;5059332;28;20573;-74
2023/01/19 09:10:49;;;;;;;14.30;9.27;;;0.20;99.90;;;;;;5064297;28;20214;-74
2023/01/19 09:13:24;;;;;;;18.00;11.57;;;0.20;99.90;;;;;;5064316;28;20537;-74
2023/01/19 09:15:53;;;;;;;13.57;9.50;;;0.10;99.90;;;;;;5059832;28;20467;-74
2023/01/19 09:18:21;;;;;;;18.30;10.32;;;0.10;99.90;;;;;;5057140;28;20551;-74
2023/01/19 09:20:50;;;;;;;14.20;10.00;;;0.20;99.90;;;;;;5053531;28;20237;-75
2023/01/19 09:23:23;;;;;;;15.27;11.17;;;0.30;99.90;;;;;;5063418;28;20618;-74
2023/01/19 09:25:56;;;;;;;14.40;11.32;;;0.30;99.90;;;;;;5062407;28;20569;-74
2023/01/19 09:28:26;;;;;;;19.98;13.77;;;0.30;99.90;;;;;;5061698;28;20262;-74
2023/01/19 09:30:53;;;;;;;15.32;11.85;;;0.30;99.90;;;;;;5057643;28;20659;-73
2023/01/19 09:33:23;;;;;;;19.58;12.38;;;0.30;99.90;;;;;;5063219;28;20287;-74
2023/01/19 09:35:51;;;;;;;17.42;11.88;;;0.30;99.90;;;;;;5057270;28;20290;-74
2023/01/19 09:38:18;;;;;;;24.45;14.40;;;0.30;99.90;;;;;;5055406;28;20205;-74
2023/01/19 09:40:50;;;;;;;24.35;14.10;;;0.30;99.90;;;;;;5062165;28;20241;-74
2023/01/19 09:43:28;;;;;;;18.00;11.50;;;0.30;99.90;;;;;;5060770;28;20206;-74
2023/01/19 09:45:58;;;;;;;21.30;10.85;;;0.30;99.90;;;;;;5070834;28;20675;-74
2023/01/19 09:48:34;;;;;;;16.30;11.10;;;0.30;99.90;;;;;;5073890;28;20264;-74
2023/01/19 09:51:04;;;;;;;19.40;12.75;;;0.30;99.90;;;;;;5051061;28;20943;-74
2023/01/19 09:53:49;;;;;;;18.13;11.53;;;0.30;99.90;;;;;;5054277;28;20264;-74
2023/01/19 09:56:19;;;;;;;17.45;9.82;;;0.30;99.90;;;;;;5055521;28;20474;-74
2023/01/19 09:58:53;;;;;;;15.43;10.32;;;0.40;99.90;;;;;;5056671;28;20226;-74
2023/01/19 10:01:36;;;;;;;15.13;11.15;;;0.40;99.90;;;;;;5061491;28;20648;-74
2023/01/19 10:04:22;;;;;;;15.20;9.55;;;0.40;99.90;;;;;;5055028;28;20739;-74
2023/01/19 10:06:50;;;;;;;13.48;10.70;;;0.40;99.90;;;;;;5051196;28;20725;-74
2023/01/19 10:09:27;;;;;;;13.30;10.85;;;0.40;99.90;;;;;;5046567;28;20198;-74
2023/01/19 10:12:01;;;;;;;18.58;12.00;;;0.50;99.90;;;;;;5046534;28;20214;-74
2023/01/19 10:14:38;;;;;;;18.30;13.37;;;0.60;99.90;;;;;;5055746;28;20229;-74
2023/01/19 10:17:18;;;;;;;14.53;9.57;;;0.60;99.90;;;;;;5055405;28;20521;-74
2023/01/19 10:19:49;;;;;;;16.83;10.53;;;0.60;99.90;;;;;;5057768;28;20538;-74
2023/01/19 10:22:23;;;;;;;18.40;11.43;;;0.70;99.90;;;;;;5053797;28;20493;-74
2023/01/19 10:24:54;;;;;;;14.23;10.07;;;0.70;99.90;;;;;;5063303;28;20519;-74
2023/01/19 10:27:26;;;;;;;14.17;11.20;;;0.70;99.90;;;;;;5062281;28;21012;-74
2023/01/19 10:29:56;;;;;;;18.97;12.00;;;0.60;99.90;;;;;;5058286;28;20990;-74
2023/01/19 10:32:29;;;;;;;18.00;14.30;;;0.50;99.90;;;;;;5053978;28;20503;-74
2023/01/19 10:34:58;;;;;;;18.10;11.27;;;0.50;99.90;;;;;;5054020;28;20540;-75
2023/01/19 10:37:30;;;;;;;13.53;10.00;;;0.30;99.90;;;;;;5059523;28;20549;-74
2023/01/19 10:40:01;;;;;;;17.33;13.35;;;0.30;99.90;;;;;;5053950;28;20483;-75
2023/01/19 10:42:30;;;;;;;21.15;13.27;;;0.20;99.90;;;;;;5047913;28;20238;-74
2023/01/19 10:44:58;;;;;;;26.73;14.13;;;0.20;99.90;;;;;;5056984;28;20569;-74
2023/01/19 10:47:31;;;;;;;14.90;12.03;;;0.20;99.90;;;;;;5051778;28;20554;-74
2023/01/19 10:49:58;;;;;;;24.23;14.40;;;0.20;99.90;;;;;;5059138;28;20456;-74
2023/01/19 10:52:31;;;;;;;19.30;14.00;;;0.20;99.90;;;;;;5071845;28;21047;-74
2023/01/19 10:54:59;;;;;;;19.75;13.85;;;0.20;99.90;;;;;;5068876;28;20484;-74
2023/01/19 10:57:30;;;;;;;18.87;14.80;;;0.20;99.90;;;;;;5062860;28;20206;-74
2023/01/19 11:00:01;;;;;;;22.67;13.23;;;0.10;99.90;;;;;;5076850;28;20467;-74
2023/01/19 11:02:30;;;;;;;21.03;15.13;;;0.10;99.90;;;;;;5059347;28;20802;-74
2023/01/19 11:04:59;;;;;;;23.40;14.93;;;0.20;99.90;;;;;;5067590;28;20448;-74
2023/01/19 11:07:32;;;;;;;22.90;15.33;;;0.10;99.90;;;;;;5062117;28;20233;-74
2023/01/19 11:10:22;;;;;;;13.60;11.57;;;0.10;99.90;;;;;;5055700;28;20461;-74
2023/01/19 11:13:00;;;;;;;19.33;13.37;;;0.20;99.90;;;;;;5061102;28;20938;-74
2023/01/19 11:15:36;;;;;;;16.25;12.48;;;0.30;99.90;;;;;;5061097;28;20510;-74
2023/01/19 11:18:05;;;;;;;18.83;13.40;;;0.40;99.90;;;;;;5059313;28;20214;-74
2023/01/19 11:20:48;;;;;;;16.17;13.90;;;0.30;99.90;;;;;;5061260;28;20499;-74
2023/01/19 11:23:26;;;;;;;16.23;12.15;;;0.30;99.90;;;;;;5053638;28;20210;-74
2023/01/19 11:25:59;;;;;;;15.82;12.73;;;0.30;99.90;;;;;;5064008;28;20237;-74
2023/01/19 11:28:29;;;;;;;17.02;11.88;;;0.20;99.90;;;;;;5066686;28;20259;-74
2023/01/19 11:31:00;;;;;;;18.92;13.85;;;0.10;99.90;;;;;;5055572;28;20237;-74
2023/01/19 11:33:33;;;;;;;19.95;12.90;;;0.20;99.90;;;;;;5067106;28;20242;-74
2023/01/19 11:36:06;;;;;;;16.27;12.43;;;0.20;99.90;;;;;;5051541;28;20233;-74
2023/01/19 11:38:42;;;;;;;17.33;13.65;;;0.10;99.90;;;;;;5059675;28;20225;-74
2023/01/19 11:41:16;;;;;;;21.75;14.80;;;0.20;99.90;;;;;;5062665;28;20715;-74
2023/01/19 11:43:49;;;;;;;17.27;13.13;;;0.30;99.90;;;;;;5056309;28;20201;-74
2023/01/19 11:46:18;;;;;;;17.20;11.55;;;0.20;99.90;;;;;;5065915;28;20215;-74
2023/01/19 11:48:49;;;;;;;22.60;12.27;;;0.10;99.90;;;;;;5067329;28;20263;-73
2023/01/19 11:51:20;;;;;;;13.65;11.35;;;0.00;99.90;;;;;;5061315;28;20925;-74
2023/01/19 11:53:53;;;;;;;15.52;10.70;;;0.10;99.90;;;;;;5069118;28;20205;-74
2023/01/19 11:56:24;;;;;;;19.15;13.27;;;0.10;99.90;;;;;;5064478;28;20214;-74
2023/01/19 11:58:53;;;;;;;15.70;11.65;;;0.10;99.90;;;;;;5072350;28;20331;-74
2023/01/19 12:01:24;;;;;;;16.30;11.93;;;0.10;99.90;;;;;;5066384;28;20217;-72
2023/01/19 12:03:57;;;;;;;12.48;10.50;;;0.10;99.90;;;;;;5060988;28;20206;-74
2023/01/19 12:06:29;;;;;;;17.25;10.45;;;0.10;99.90;;;;;;5058127;28;20723;-73
2023/01/19 12:09:01;;;;;;;10.23;8.52;;;0.00;99.90;;;;;;5059547;28;20708;-74
2023/01/19 12:11:34;;;;;;;9.52;8.40;;;0.00;99.90;;;;;;5060945;28;20310;-74
2023/01/19 12:14:01;;;;;;;11.73;8.52;;;0.00;99.90;;;;;;5057862;28;20206;-74
2023/01/19 12:16:32;;;;;;;12.15;8.65;;;0.00;99.90;;;;;;5065758;28;20206;-73
2023/01/19 12:19:03;;;;;;;12.60;10.95;;;0.00;99.90;;;;;;5050932;28;20206;-73
2023/01/19 12:21:30;;;;;;;14.90;11.20;;;0.00;99.90;;;;;;5063347;28;20240;-73
2023/01/19 12:24:07;;;;;;;12.23;10.40;;;0.10;99.90;;;;;;5061028;28;21851;-73
2023/01/19 12:26:36;;;;;;;13.15;9.60;;;0.20;99.90;;;;;;5053316;28;20306;-73
2023/01/19 12:29:14;;;;;;;8.95;7.95;;;0.20;99.90;;;;;;5059867;28;20424;-74
2023/01/19 12:31:44;;;;;;;12.67;9.90;;;0.20;99.90;;;;;;5062461;28;20216;-74
2023/01/19 12:34:31;;;;;;;12.27;10.50;;;0.20;99.90;;;;;;5052307;28;21115;-73
2023/01/19 12:37:02;;;;;;;11.95;8.45;;;0.20;99.90;;;;;;5058715;28;20451;-73
2023/01/19 12:39:31;;;;;;;10.40;9.38;;;0.20;99.90;;;;;;5064143;28;20193;-73
2023/01/19 12:42:14;;;;;;;13.60;9.55;;;0.30;99.90;;;;;;5059638;28;20217;-73
2023/01/19 12:44:42;;;;;;;11.73;7.80;;;0.30;99.90;;;;;;5064147;28;20236;-74
2023/01/19 12:47:23;;;;;;;11.27;9.63;;;0.20;99.90;;;;;;5076458;28;20660;-73
2023/01/19 12:49:52;;;;;;;13.20;11.03;;;0.30;99.90;;;;;;5080509;28;20288;-74
2023/01/19 12:52:25;;;;;;;12.33;10.50;;;0.30;99.90;;;;;;5072238;28;21159;-74
2023/01/19 12:55:00;;;;;;;20.25;11.50;;;0.30;99.90;;;;;;5060717;28;20464;-74
2023/01/19 12:57:31;;;;;;;11.30;10.13;;;0.30;99.90;;;;;;5063238;28;20269;-73
2023/01/19 13:00:04;;;;;;;12.07;9.43;;;0.30;99.90;;;;;;5062552;28;20841;-73
2023/01/19 13:02:42;;;;;;;11.95;8.95;;;0.40;99.90;;;;;;5051159;28;20947;-76
2023/01/19 13:05:18;;;;;;;12.52;9.60;;;0.40;99.90;;;;;;5060920;28;20592;-74
2023/01/19 13:08:19;;;;;;;11.98;9.63;;;0.40;99.90;;;;;;5064446;28;20329;-74